Time;durP1;ratioP1;P1;durP2;ratioP2;P2;SDS_P1;SDS_P2;PMS_P1;PMS_P2;Temp;Humidity;BMP_temperature;BMP_pressure;BME280_temperature;BME280_humidity;BME280_pressure;Samples;Min_cycle;Max_cycle;Signal;HPM_P1;HPM_P2
2023/03/22 00:01:09;;;;;;;;;;;;;;;9.42;100.00;96167.25;5100672;28;19923;-79
2023/03/22 00:03:35;;;;;;;;;;;;;;;9.47;100.00;96167.41;5102330;27;19928;-79
2023/03/22 00:06:02;;;;;;;;;;;;;;;9.46;100.00;96171.13;5098632;28;19928;-79
2023/03/22 00:08:29;;;;;;;;;;;;;;;9.49;100.00;96168.00;5099766;28;19947;-79
2023/03/22 00:10:55;;;;;;;;;;;;;;;9.50;100.00;96169.66;5101661;28;19950;-79
2023/03/22 00:13:22;;;;;;;;;;;;;;;9.53;100.00;96162.97;5104983;28;19924;-79
2023/03/22 00:15:50;;;;;;;;;;;;;;;9.58;100.00;96168.50;5101827;28;19931;-79
2023/03/22 00:18:18;;;;;;;;;;;;;;;9.66;100.00;96165.47;5094711;28;19924;-79
2023/03/22 00:20:48;;;;;;;;;;;;;;;9.76;100.00;96163.88;5106153;28;19977;-79
2023/03/22 00:23:15;;;;;;;;;;;;;;;9.80;99.89;96148.06;5103694;28;19945;-79
2023/03/22 00:25:42;;;;;;;;;;;;;;;9.77;100.00;96151.22;5097665;28;19932;-79
2023/03/22 00:28:08;;;;;;;;;;;;;;;9.75;100.00;96148.75;5104820;28;19924;-79
2023/03/22 00:30:35;;;;;;;;;;;;;;;9.74;100.00;96139.03;5100407;28;19924;-79
2023/03/22 00:33:04;;;;;;;;;;;;;;;9.76;100.00;96139.63;5099733;28;19979;-79
2023/03/22 00:35:30;;;;;;;;;;;;;;;9.77;99.48;96125.09;5103255;28;19932;-79
2023/03/22 00:38:04;;;;;;;;;;;;;;;9.78;99.45;96126.72;5095346;28;19924;-79
2023/03/22 00:40:31;;;;;;;;;;;;;;;9.77;99.01;96125.09;5096515;27;20013;-79
2023/03/22 00:42:58;;;;;;;;;;;;;;;9.80;97.27;96108.44;5095895;28;19924;-79
2023/03/22 00:45:27;;;;;;;;;;;;;;;9.88;95.98;96099.19;5102587;28;19931;-79
2023/03/22 00:47:54;;;;;;;;;;;;;;;9.94;95.51;96086.66;5093495;28;19924;-79
2023/03/22 00:50:23;;;;;;;;;;;;;;;9.97;94.57;96100.50;5101067;28;19931;-79
2023/03/22 00:52:49;;;;;;;;;;;;;;;10.03;94.63;96096.06;5110240;27;19924;-79
2023/03/22 00:55:16;;;;;;;;;;;;;;;10.01;94.36;96081.97;5110216;28;19923;-79
2023/03/22 00:57:43;;;;;;;;;;;;;;;10.02;94.08;96083.63;5108953;28;19924;-79
2023/03/22 01:00:12;;;;;;;;;;;;;;;10.04;93.44;96086.88;5108926;27;19924;-79
2023/03/22 01:02:40;;;;;;;;;;;;;;;10.06;93.38;96088.31;5104293;27;19924;-79
2023/03/22 01:05:14;;;;;;;;;;;;;;;10.08;94.32;96088.91;5102089;28;19924;-79
2023/03/22 01:07:43;;;;;;;;;;;;;;;10.12;93.75;96094.66;5104836;28;19924;-79
2023/03/22 01:10:10;;;;;;;;;;;;;;;10.14;94.11;96089.84;5104467;28;19923;-79
2023/03/22 01:12:38;;;;;;;;;;;;;;;10.17;93.11;96094.78;5107431;28;19928;-79
2023/03/22 01:15:06;;;;;;;;;;;;;;;10.18;91.74;96099.16;5095768;28;19935;-79
2023/03/22 01:17:33;;;;;;;;;;;;;;;10.20;91.50;96088.94;5104626;27;19969;-79
2023/03/22 01:19:59;;;;;;;;;;;;;;;10.19;93.17;96079.22;5101289;28;19960;-79
2023/03/22 01:22:26;;;;;;;;;;;;;;;10.16;95.05;96079.63;5101049;28;19924;-79
2023/03/22 01:24:56;;;;;;;;;;;;;;;10.12;94.45;96073.09;5096788;28;19924;-79
2023/03/22 01:27:23;;;;;;;;;;;;;;;10.13;93.62;96061.22;5098594;28;19924;-79
2023/03/22 01:29:50;;;;;;;;;;;;;;;10.09;96.04;96063.56;5095996;28;19924;-79
2023/03/22 01:32:16;;;;;;;;;;;;;;;10.09;95.64;96054.66;5102802;27;19930;-79
2023/03/22 01:34:43;;;;;;;;;;;;;;;10.11;94.92;96039.06;5098426;28;19942;-79
2023/03/22 01:37:10;;;;;;;;;;;;;;;10.14;92.00;96038.56;5104333;28;19931;-79
2023/03/22 01:39:40;;;;;;;;;;;;;;;10.15;90.76;96035.66;5102215;28;19924;-79
2023/03/22 01:42:12;;;;;;;;;;;;;;;10.17;91.21;96036.28;5102955;27;19928;-79
2023/03/22 01:44:42;;;;;;;;;;;;;;;10.18;90.90;96037.09;5108598;28;19924;-79
2023/03/22 01:47:09;;;;;;;;;;;;;;;10.16;91.41;96033.78;5111738;27;19923;-79
2023/03/22 01:49:36;;;;;;;;;;;;;;;10.12;91.27;96038.81;5092712;28;20170;-79
2023/03/22 01:52:05;;;;;;;;;;;;;;;10.13;92.33;96042.31;5095775;28;19930;-79
2023/03/22 01:54:47;;;;;;;;;;;;;;;10.12;92.97;96044.19;5103376;28;19924;-79
2023/03/22 01:57:27;;;;;;;;;;;;;;;10.12;93.46;96048.81;5095793;28;19931;-79
2023/03/22 01:59:56;;;;;;;;;;;;;;;10.11;93.92;96060.66;5099640;28;19924;-79
2023/03/22 02:02:40;;;;;;;;;;;;;;;10.04;94.71;96051.81;5096236;28;19924;-79
2023/03/22 02:05:21;;;;;;;;;;;;;;;9.98;94.97;96042.78;5099115;27;19954;-79
2023/03/22 02:07:48;;;;;;;;;;;;;;;9.92;95.71;96051.00;5095831;28;19924;-79
2023/03/22 02:10:16;;;;;;;;;;;;;;;9.87;96.97;96057.09;5099503;28;19928;-79
2023/03/22 02:13:04;;;;;;;;;;;;;;;9.79;98.21;96043.94;5098039;28;19924;-79
2023/03/22 02:15:49;;;;;;;;;;;;;;;9.52;100.00;96035.47;5110681;27;19924;-79
2023/03/22 02:18:43;;;;;;;;;;;;;;;9.42;100.00;96032.53;5098832;28;19934;-79
2023/03/22 02:21:21;;;;;;;;;;;;;;;9.33;100.00;96025.81;5099007;28;19985;-79
2023/03/22 02:24:03;;;;;;;;;;;;;;;9.24;100.00;96028.03;5096342;28;19924;-79
2023/03/22 02:26:49;;;;;;;;;;;;;;;9.19;100.00;96030.56;5100211;28;19928;-79
2023/03/22 02:29:25;;;;;;;;;;;;;;;9.09;100.00;96039.22;5122571;27;19928;-79
2023/03/22 02:32:04;;;;;;;;;;;;;;;8.95;100.00;96036.91;5095349;27;19924;-79
2023/03/22 02:34:48;;;;;;;;;;;;;;;8.89;100.00;96041.34;5093435;28;19931;-79
2023/03/22 02:37:40;;;;;;;;;;;;;;;8.91;100.00;96044.63;5113613;27;19931;-79
2023/03/22 02:40:11;;;;;;;;;;;;;;;8.96;100.00;96036.69;5111665;27;20007;-79
2023/03/22 02:42:44;;;;;;;;;;;;;;;8.93;100.00;96042.53;5099577;28;19935;-79
2023/03/22 02:45:14;;;;;;;;;;;;;;;8.72;100.00;96034.94;5100927;27;19974;-79
2023/03/22 02:47:43;;;;;;;;;;;;;;;8.67;100.00;96040.19;5106049;28;19927;-79
2023/03/22 02:50:14;;;;;;;;;;;;;;;8.63;100.00;96037.13;5110024;28;19932;-79
2023/03/22 02:52:44;;;;;;;;;;;;;;;8.61;100.00;96035.69;5110221;28;20001;-79
2023/03/22 02:55:14;;;;;;;;;;;;;;;8.48;100.00;96054.69;5104095;27;19928;-79
2023/03/22 02:57:44;;;;;;;;;;;;;;;8.47;100.00;96059.25;5097844;28;19932;-79
2023/03/22 03:00:14;;;;;;;;;;;;;;;8.46;100.00;96059.47;5106704;28;19924;-79
2023/03/22 03:02:44;;;;;;;;;;;;;;;8.27;100.00;96059.41;5094140;28;19928;-79
2023/03/22 03:05:12;;;;;;;;;;;;;;;8.17;100.00;96063.66;5093929;28;19946;-79
2023/03/22 03:07:42;;;;;;;;;;;;;;;8.14;100.00;96066.81;5095461;28;19947;-79
2023/03/22 03:10:09;;;;;;;;;;;;;;;8.09;100.00;96067.44;5089971;27;19952;-79
2023/03/22 03:12:37;;;;;;;;;;;;;;;8.09;100.00;96072.00;5095886;28;19959;-79
2023/03/22 03:15:12;;;;;;;;;;;;;;;8.10;100.00;96069.09;5095646;28;20014;-79
2023/03/22 03:17:47;;;;;;;;;;;;;;;8.11;100.00;96064.56;5101128;28;19924;-79
2023/03/22 03:20:28;;;;;;;;;;;;;;;8.06;100.00;96072.47;5103879;28;19930;-79
2023/03/22 03:22:59;;;;;;;;;;;;;;;8.01;100.00;96072.28;5095405;28;19983;-79
2023/03/22 03:25:31;;;;;;;;;;;;;;;7.95;100.00;96076.69;5105984;28;19997;-79
2023/03/22 03:28:05;;;;;;;;;;;;;;;7.89;100.00;96070.34;5101182;28;19924;-79
2023/03/22 03:30:34;;;;;;;;;;;;;;;7.83;100.00;96073.91;5099661;28;19924;-79
2023/03/22 03:33:08;;;;;;;;;;;;;;;7.77;100.00;96073.94;5091096;28;19924;-79
2023/03/22 03:35:38;;;;;;;;;;;;;;;7.75;100.00;96081.41;5105610;27;20014;-79
2023/03/22 03:38:08;;;;;;;;;;;;;;;7.76;100.00;96075.81;5102873;28;19934;-79
2023/03/22 03:40:37;;;;;;;;;;;;;;;7.77;100.00;96082.84;5104240;27;20028;-79
2023/03/22 03:43:07;;;;;;;;;;;;;;;7.81;100.00;96086.75;5099931;28;19924;-79
2023/03/22 03:45:36;;;;;;;;;;;;;;;7.85;100.00;96082.56;5092831;28;19931;-79
2023/03/22 03:48:05;;;;;;;;;;;;;;;7.90;100.00;96092.69;5091120;28;20018;-79
2023/03/22 03:50:32;;;;;;;;;;;;;;;7.87;100.00;96099.31;5103354;28;20030;-79
2023/03/22 03:52:59;;;;;;;;;;;;;;;7.67;100.00;96098.63;5094520;28;19924;-79
2023/03/22 03:55:26;;;;;;;;;;;;;;;7.49;100.00;96104.75;5110096;28;19932;-79
2023/03/22 03:57:53;;;;;;;;;;;;;;;7.41;100.00;96112.22;5099993;28;19924;-79
2023/03/22 04:00:21;;;;;;;;;;;;;;;7.41;100.00;96117.59;5098464;28;20035;-79
2023/03/22 04:03:20;;;;;;;;;;;;;;;7.46;100.00;96118.63;5099504;28;19924;-79
2023/03/22 04:06:10;;;;;;;;;;;;;;;7.47;100.00;96112.22;5095808;27;20022;-79
2023/03/22 04:08:40;;;;;;;;;;;;;;;7.43;100.00;96107.47;5097886;28;19966;-79
2023/03/22 04:11:07;;;;;;;;;;;;;;;7.34;100.00;96109.59;5103009;28;19924;-79
2023/03/22 04:13:34;;;;;;;;;;;;;;;7.26;100.00;96114.41;5109978;28;19931;-79
2023/03/22 04:16:07;;;;;;;;;;;;;;;7.24;100.00;96117.28;5104268;28;20036;-79
2023/03/22 04:18:36;;;;;;;;;;;;;;;7.21;100.00;96117.75;5098342;28;19970;-79
2023/03/22 04:21:07;;;;;;;;;;;;;;;7.23;100.00;96118.31;5101193;28;20031;-79
2023/03/22 04:23:45;;;;;;;;;;;;;;;7.24;100.00;96111.91;5118857;27;19950;-79
2023/03/22 04:26:12;;;;;;;;;;;;;;;7.32;100.00;96106.28;5099764;27;19928;-79
2023/03/22 04:28:53;;;;;;;;;;;;;;;7.37;100.00;96111.88;5097376;28;19930;-79
2023/03/22 04:31:21;;;;;;;;;;;;;;;7.40;100.00;96122.16;5107228;28;19994;-79
2023/03/22 04:33:55;;;;;;;;;;;;;;;7.42;100.00;96117.41;5102829;28;19924;-79
2023/03/22 04:36:38;;;;;;;;;;;;;;;7.43;100.00;96116.38;5102633;28;19928;-79
2023/03/22 04:39:21;;;;;;;;;;;;;;;7.44;100.00;96112.63;5102656;28;19924;-79
2023/03/22 04:41:57;;;;;;;;;;;;;;;7.38;100.00;96118.88;5101259;27;19951;-79
2023/03/22 04:44:24;;;;;;;;;;;;;;;7.40;100.00;96107.94;5099323;28;20032;-79
2023/03/22 04:46:54;;;;;;;;;;;;;;;7.41;100.00;96118.44;5106956;27;19978;-79
2023/03/22 04:49:22;;;;;;;;;;;;;;;7.39;100.00;96120.53;5110638;28;19928;-79
2023/03/22 04:51:48;;;;;;;;;;;;;;;7.29;100.00;96109.44;5097043;28;19931;-79
2023/03/22 04:54:35;;;;;;;;;;;;;;;7.09;100.00;96114.06;5104791;28;19963;-79
2023/03/22 04:57:02;;;;;;;;;;;;;;;7.07;100.00;96106.22;5095832;28;19936;-79
2023/03/22 04:59:34;;;;;;;;;;;;;;;7.07;100.00;96102.72;5097269;28;19932;-79
2023/03/22 05:02:03;;;;;;;;;;;;;;;7.06;100.00;96098.41;5093969;28;19931;-79
2023/03/22 05:04:37;;;;;;;;;;;;;;;7.04;100.00;96093.25;5105905;28;19935;-79
2023/03/22 05:07:12;;;;;;;;;;;;;;;7.03;100.00;96094.28;5103143;28;20014;-79
2023/03/22 05:09:48;;;;;;;;;;;;;;;6.97;100.00;96095.16;5101308;28;19958;-79
2023/03/22 05:12:15;;;;;;;;;;;;;;;6.92;100.00;96086.06;5102627;28;19924;-79
2023/03/22 05:15:17;;;;;;;;;;;;;;;6.81;100.00;96092.91;5101376;28;19924;-79
2023/03/22 05:17:46;;;;;;;;;;;;;;;6.81;100.00;96085.69;5097749;27;19923;-79
2023/03/22 05:20:13;;;;;;;;;;;;;;;6.84;100.00;96087.97;5106679;28;19924;-79
2023/03/22 05:22:44;;;;;;;;;;;;;;;6.89;100.00;96087.31;5102100;28;19924;-80
2023/03/22 05:25:11;;;;;;;;;;;;;;;6.90;100.00;96080.91;5105164;27;19924;-79
2023/03/22 05:27:41;;;;;;;;;;;;;;;6.96;100.00;96084.63;5097351;28;19930;-79
2023/03/22 05:30:26;;;;;;;;;;;;;;;7.03;100.00;96080.88;5105725;28;19930;-79
2023/03/22 05:33:04;;;;;;;;;;;;;;;7.06;100.00;96087.66;5095584;28;19924;-79
2023/03/22 05:35:37;;;;;;;;;;;;;;;7.02;100.00;96089.94;5100170;27;19975;-80
2023/03/22 05:38:05;;;;;;;;;;;;;;;7.03;100.00;96096.16;5094531;27;19924;-79
2023/03/22 05:40:35;;;;;;;;;;;;;;;7.09;100.00;96096.09;5097320;28;19928;-80
2023/03/22 05:43:02;;;;;;;;;;;;;;;7.22;100.00;96095.22;5095631;28;19936;-80
2023/03/22 05:45:30;;;;;;;;;;;;;;;7.43;100.00;96107.47;5095559;28;20020;-80
2023/03/22 05:48:07;;;;;;;;;;;;;;;7.44;100.00;96104.56;5092304;28;19924;-80
2023/03/22 05:50:35;;;;;;;;;;;;;;;7.46;100.00;96121.31;5104612;28;20287;-80
2023/03/22 05:53:03;;;;;;;;;;;;;;;7.38;100.00;96118.06;5104123;27;19924;-77
2023/03/22 05:55:34;;;;;;;;;;;;;;;7.27;100.00;96121.41;5097613;28;19928;-78
2023/03/22 05:58:04;;;;;;;;;;;;;;;7.21;100.00;96123.09;5097614;28;19932;-77
2023/03/22 06:00:37;;;;;;;;;;;;;;;7.21;100.00;96125.78;5096036;28;19930;-78
2023/03/22 06:03:23;;;;;;;;;;;;;;;7.21;100.00;96125.78;5106608;28;19931;-78
2023/03/22 06:06:09;;;;;;;;;;;;;;;7.11;100.00;96128.13;5113483;27;20018;-77
2023/03/22 06:09:03;;;;;;;;;;;;;;;6.93;100.00;96120.75;5104814;28;19927;-77
2023/03/22 06:11:32;;;;;;;;;;;;;;;6.86;100.00;96119.97;5107880;27;19927;-77
2023/03/22 06:14:00;;;;;;;;;;;;;;;6.87;100.00;96123.47;5104084;28;19924;-80
2023/03/22 06:16:34;;;;;;;;;;;;;;;6.89;100.00;96124.88;5097216;28;19935;-79
2023/03/22 06:19:02;;;;;;;;;;;;;;;6.91;100.00;96122.81;5098659;28;19946;-80
2023/03/22 06:21:29;;;;;;;;;;;;;;;6.90;100.00;96129.22;5103632;27;19924;-80
2023/03/22 06:23:56;;;;;;;;;;;;;;;6.86;100.00;96129.88;5099853;28;19985;-79
2023/03/22 06:26:24;;;;;;;;;;;;;;;6.80;100.00;96121.63;5095866;28;19930;-80
2023/03/22 06:28:51;;;;;;;;;;;;;;;6.73;100.00;96120.81;5109251;28;19924;-77
2023/03/22 06:31:17;;;;;;;;;;;;;;;6.76;100.00;96123.09;5095315;28;19946;-77
2023/03/22 06:33:50;;;;;;;;;;;;;;;6.78;100.00;96117.53;5102187;27;19978;-77
2023/03/22 06:36:27;;;;;;;;;;;;;;;6.73;100.00;96115.44;5095280;28;19928;-77
2023/03/22 06:39:07;;;;;;;;;;;;;;;6.71;100.00;96114.88;5091596;28;19985;-77
2023/03/22 06:41:34;;;;;;;;;;;;;;;6.67;100.00;96110.94;5102452;28;19924;-77
2023/03/22 06:44:01;;;;;;;;;;;;;;;6.65;100.00;96114.88;5102069;28;19923;-77
2023/03/22 06:46:42;;;;;;;;;;;;;;;6.64;100.00;96111.34;5090985;28;20017;-76
2023/03/22 06:49:18;;;;;;;;;;;;;;;6.69;100.00;96110.75;5099621;28;19982;-77
2023/03/22 06:51:47;;;;;;;;;;;;;;;6.79;100.00;96108.44;5102647;27;19971;-78
2023/03/22 06:54:15;;;;;;;;;;;;;;;6.89;100.00;96110.66;5096418;28;19935;-77
2023/03/22 06:56:42;;;;;;;;;;;;;;;7.01;100.00;96108.94;5093496;28;19967;-77
2023/03/22 06:59:08;;;;;;;;;;;;;;;7.12;100.00;96097.53;5092956;27;19924;-77
2023/03/22 07:01:35;;;;;;;;;;;;;;;7.22;100.00;96097.91;5093852;28;19931;-76
2023/03/22 07:04:02;;;;;;;;;;;;;;;7.25;100.00;96092.09;5110750;27;19924;-76
2023/03/22 07:06:29;;;;;;;;;;;;;;;7.26;100.00;96088.38;5100147;28;19923;-76
2023/03/22 07:08:58;;;;;;;;;;;;;;;7.28;100.00;96099.72;5107698;28;19924;-78
2023/03/22 07:11:29;;;;;;;;;;;;;;;7.26;100.00;96095.59;5108435;28;19924;-77
2023/03/22 07:14:00;;;;;;;;;;;;;;;7.22;100.00;96089.84;5111779;27;19951;-77
2023/03/22 07:16:37;;;;;;;;;;;;;;;7.17;100.00;96089.66;5094640;28;19945;-77
2023/03/22 07:19:06;;;;;;;;;;;;;;;7.20;100.00;96083.88;5092127;28;19942;-77
2023/03/22 07:21:33;;;;;;;;;;;;;;;7.23;100.00;96083.41;5105978;28;19927;-77
2023/03/22 07:24:08;;;;;;;;;;;;;;;7.32;100.00;96083.97;5101775;28;19931;-78
2023/03/22 07:26:37;;;;;;;;;;;;;;;7.36;100.00;96077.97;5104794;28;21520;-78
2023/03/22 07:29:04;;;;;;;;;;;;;;;7.38;100.00;96083.97;5107539;28;20016;-77
2023/03/22 07:31:35;;;;;;;;;;;;;;;7.39;100.00;96077.56;5098878;27;19931;-77
2023/03/22 07:34:05;;;;;;;;;;;;;;;7.36;100.00;96075.28;5100618;28;19935;-77
2023/03/22 07:36:40;;;;;;;;;;;;;;;7.36;100.00;96077.97;5094630;28;19924;-77
2023/03/22 07:39:13;;;;;;;;;;;;;;;7.38;100.00;96081.28;5106882;28;20052;-77
2023/03/22 07:41:44;;;;;;;;;;;;;;;7.42;100.00;96078.97;5103893;28;19958;-77
2023/03/22 07:44:37;;;;;;;;;;;;;;;7.36;100.00;96091.41;5104044;28;19953;-78
2023/03/22 07:47:19;;;;;;;;;;;;;;;7.35;100.00;96091.63;5097923;28;20080;-77
2023/03/22 07:50:11;;;;;;;;;;;;;;;7.29;100.00;96098.69;5092894;28;20050;-77
2023/03/22 07:52:38;;;;;;;;;;;;;;;7.28;100.00;96097.03;5102100;27;19974;-77
2023/03/22 07:55:06;;;;;;;;;;;;;;;7.24;100.00;96101.19;5096136;28;19924;-77
2023/03/22 07:57:34;;;;;;;;;;;;;;;7.22;100.00;96104.09;5099873;28;20001;-77
2023/03/22 08:00:00;;;;;;;;;;;;;;;7.22;100.00;96100.59;5099985;28;19936;-78
2023/03/22 08:02:44;;;;;;;;;;;;;;;7.24;100.00;96101.19;5094969;28;19924;-79
2023/03/22 08:05:17;;;;;;;;;;;;;;;7.24;100.00;96101.19;5101846;28;19928;-78
2023/03/22 08:07:45;;;;;;;;;;;;;;;7.29;100.00;96097.88;5097515;28;19924;-77
2023/03/22 08:10:14;;;;;;;;;;;;;;;7.31;100.00;96104.69;5101657;28;20007;-77
2023/03/22 08:12:41;;;;;;;;;;;;;;;7.34;100.00;96098.84;5097041;28;19927;-77
2023/03/22 08:15:17;;;;;;;;;;;;;;;7.37;100.00;96094.91;5101128;28;20027;-77
2023/03/22 08:17:44;;;;;;;;;;;;;;;7.43;100.00;96088.66;5090037;28;19924;-78
2023/03/22 08:20:17;;;;;;;;;;;;;;;7.44;100.00;96085.78;5097702;28;19924;-77
2023/03/22 08:22:49;;;;;;;;;;;;;;;7.51;100.00;96089.22;5091407;28;19985;-77
2023/03/22 08:25:20;;;;;;;;;;;;;;;7.65;100.00;96081.09;5101813;28;19923;-77
2023/03/22 08:27:47;;;;;;;;;;;;;;;7.93;100.00;96066.16;5105134;27;19967;-77
2023/03/22 08:30:14;;;;;;;;;;;;;;;8.23;100.00;96071.69;5109300;28;19931;-77
2023/03/22 08:32:43;;;;;;;;;;;;;;;8.57;100.00;96066.81;5094117;28;19931;-77
2023/03/22 08:35:10;;;;;;;;;;;;;;;8.88;100.00;96061.25;5101619;28;19931;-77
2023/03/22 08:37:38;;;;;;;;;;;;;;;9.28;100.00;96063.38;5098037;27;19928;-77
2023/03/22 08:40:08;;;;;;;;;;;;;;;9.59;100.00;96059.63;5100498;28;20004;-77
2023/03/22 08:42:41;;;;;;;;;;;;;;;9.85;99.21;96060.03;5102625;28;19928;-76
2023/03/22 08:45:09;;;;;;;;;;;;;;;10.13;94.90;96064.72;5108486;28;20005;-76
2023/03/22 08:47:41;;;;;;;;;;;;;;;10.40;92.09;96064.28;5103798;28;19927;-77
2023/03/22 08:50:10;;;;;;;;;;;;;;;10.71;90.87;96060.41;5100289;28;19924;-76
2023/03/22 08:52:52;;;;;;;;;;;;;;;11.12;86.05;96070.97;5106584;27;19970;-77
2023/03/22 08:55:28;;;;;;;;;;;;;;;11.50;82.23;96062.22;5098106;28;20021;-77
2023/03/22 08:58:12;;;;;;;;;;;;;;;11.88;79.64;96058.84;5105775;27;20020;-77
2023/03/22 09:00:57;;;;;;;;;;;;;;;12.13;77.35;96053.84;5103465;27;19985;-77
2023/03/22 09:03:42;;;;;;;;;;;;;;;12.43;76.75;96052.66;5106291;28;19924;-77
2023/03/22 09:06:10;;;;;;;;;;;;;;;12.81;73.78;96043.72;5108513;28;19974;-77
2023/03/22 09:08:40;;;;;;;;;;;;;;;13.12;69.37;96042.19;5104792;28;20262;-78
2023/03/22 09:11:13;;;;;;;;;;;;;;;13.37;66.22;96036.25;5105948;27;19931;-77
2023/03/22 09:13:43;;;;;;;;;;;;;;;13.49;64.70;96021.47;5096890;28;19931;-77
2023/03/22 09:16:10;;;;;;;;;;;;;;;13.64;63.29;96021.63;5100860;28;19931;-78
2023/03/22 09:18:39;;;;;;;;;;;;;;;13.75;62.52;96019.81;5104869;27;19924;-77
2023/03/22 09:21:12;;;;;;;;;;;;;;;13.88;62.36;96015.84;5105367;27;19928;-77
2023/03/22 09:23:50;;;;;;;;;;;;;;;14.13;60.34;96013.31;5097694;28;19939;-77
2023/03/22 09:26:19;;;;;;;;;;;;;;;14.20;58.90;96000.38;5100114;28;19924;-77
2023/03/22 09:28:50;;;;;;;;;;;;;;;14.31;58.26;95993.91;5108308;28;19932;-77
2023/03/22 09:31:17;;;;;;;;;;;;;;;14.43;57.57;95984.78;5098577;27;19928;-77
2023/03/22 09:33:45;;;;;;;;;;;;;;;14.53;56.25;95982.13;5104064;28;20026;-78
2023/03/22 09:36:11;;;;;;;;;;;;;;;14.69;59.19;95984.63;5092982;28;19989;-78
2023/03/22 09:38:40;;;;;;;;;;;;;;;14.89;58.80;95988.50;5094877;27;19928;-78
2023/03/22 09:41:08;;;;;;;;;;;;;;;14.96;57.86;95981.75;5102625;28;19924;-80
2023/03/22 09:43:39;;;;;;;;;;;;;;;14.99;55.99;95986.66;5107749;27;19924;-79
2023/03/22 09:46:15;;;;;;;;;;;;;;;15.09;56.66;95983.16;5098057;28;19928;-80
2023/03/22 09:48:43;;;;;;;;;;;;;;;15.27;56.04;95984.56;5109525;27;20022;-79
2023/03/22 09:51:17;;;;;;;;;;;;;;;15.39;56.23;95982.41;5102860;28;19938;-79
2023/03/22 09:53:44;;;;;;;;;;;;;;;15.33;57.78;95980.75;5104412;28;19927;-80
2023/03/22 09:56:15;;;;;;;;;;;;;;;15.50;57.58;95984.88;5098332;28;20015;-81
2023/03/22 09:58:47;;;;;;;;;;;;;;;15.74;59.12;95982.47;5095747;28;19923;-82
2023/03/22 10:01:21;;;;;;;;;;;;;;;15.79;62.76;95979.75;5103978;28;19924;-80
2023/03/22 10:04:00;;;;;;;;;;;;;;;15.99;64.83;95980.88;5095018;28;19931;-80
2023/03/22 10:06:27;;;;;;;;;;;;;;;16.16;65.84;95981.41;5109659;28;20044;-81
2023/03/22 10:08:58;;;;;;;;;;;;;;;16.06;65.95;95975.94;5101136;27;19932;-81
2023/03/22 10:11:29;;;;;;;;;;;;;;;16.13;65.77;95977.31;5094109;28;19931;-80
2023/03/22 10:14:02;;;;;;;;;;;;;;;16.09;63.47;95976.19;5092263;28;19973;-82
2023/03/22 10:16:32;;;;;;;;;;;;;;;16.11;63.59;95967.75;5092397;27;20055;-80
2023/03/22 10:19:04;;;;;;;;;;;;;;;16.20;63.16;95966.94;5093747;28;19924;-80
2023/03/22 10:21:32;;;;;;;;;;;;;;;16.28;61.67;95971.00;5095207;28;19939;-80
2023/03/22 10:24:00;;;;;;;;;;;;;;;16.45;61.03;95974.25;5099758;28;19930;-80
2023/03/22 10:26:29;;;;;;;;;;;;;;;16.50;58.34;95966.03;5098886;27;19927;-81
2023/03/22 10:29:00;;;;;;;;;;;;;;;16.49;56.60;95967.16;5098881;28;19932;-80
2023/03/22 10:31:27;;;;;;;;;;;;;;;16.56;56.00;95970.41;5094723;28;19931;-80
2023/03/22 10:33:57;;;;;;;;;;;;;;;16.67;55.10;95963.06;5094069;27;19985;-80
2023/03/22 10:36:29;;;;;;;;;;;;;;;16.91;54.69;95969.50;5091711;27;19931;-80
2023/03/22 10:38:59;;;;;;;;;;;;;;;16.73;55.98;95975.56;5112006;27;19924;-80
2023/03/22 10:41:28;;;;;;;;;;;;;;;16.81;53.45;95963.25;5099627;28;19924;-81
2023/03/22 10:43:56;;;;;;;;;;;;;;;17.00;53.23;95970.56;5092990;27;19924;-80
2023/03/22 10:46:27;;;;;;;;;;;;;;;16.98;52.03;95961.00;5097882;28;20008;-80
2023/03/22 10:48:57;;;;;;;;;;;;;;;17.13;53.37;95966.38;5090521;27;19977;-80
2023/03/22 10:51:26;;;;;;;;;;;;;;;17.43;52.49;95959.13;5108395;28;19944;-80
2023/03/22 10:53:54;;;;;;;;;;;;;;;17.46;51.58;95955.81;5104339;28;19931;-79
2023/03/22 10:56:21;;;;;;;;;;;;;;;17.63;51.39;95953.53;5100235;28;19981;-80
2023/03/22 10:58:49;;;;;;;;;;;;;;;17.77;48.63;95949.09;5095643;28;19928;-80
2023/03/22 11:01:24;;;;;;;;;;;;;;;17.89;49.50;95956.88;5105086;27;19934;-81
2023/03/22 11:03:51;;;;;;;;;;;;;;;17.97;48.76;95946.16;5113473;27;19969;-81
2023/03/22 11:06:22;;;;;;;;;;;;;;;18.03;49.22;95944.22;5095109;28;19935;-81
2023/03/22 11:08:51;;;;;;;;;;;;;;;-141.59;100.00;61776.25;5103809;28;19996;-81
2023/03/22 11:11:20;;;;;;;;;;;;;;;-141.59;100.00;61776.25;5097485;28;19935;-79
2023/03/22 11:13:53;;;;;;;;;;;;;;;-141.59;100.00;61776.25;5099351;27;19924;-79
2023/03/22 11:16:19;;;;;;;;;;;;;;;-141.59;100.00;61776.25;5092475;28;20014;-79
2023/03/22 11:18:46;;;;;;;;;;;;;;;-141.59;100.00;61776.25;5101807;28;19927;-80
2023/03/22 11:21:15;;;;;;;;;;;;;;;-141.59;100.00;61776.25;5106475;27;19924;-80
2023/03/22 11:23:48;;;;;;;;;;;;;;;-141.59;100.00;61776.25;5100955;28;20018;-80
2023/03/22 11:26:24;;;;;;;;;;;;;;;-141.59;100.00;61776.25;5094249;27;19967;-81
2023/03/22 11:28:52;;;;;;;;;;;;;;;-141.59;100.00;61776.25;5097907;28;20046;-79
2023/03/22 11:31:20;;;;;;;;;;;;;;;-141.59;100.00;61776.25;5097870;28;19939;-77
2023/03/22 11:33:54;;;;;;;;;;;;;;;-141.59;100.00;61776.25;5096544;28;19930;-77
2023/03/22 11:36:22;;;;;;;;;;;;;;;-141.59;100.00;61776.25;5094611;28;20027;-77
2023/03/22 11:38:56;;;;;;;;;;;;;;;-141.59;100.00;61776.25;5108570;28;19995;-77
2023/03/22 11:41:24;;;;;;;;;;;;;;;-141.59;100.00;61776.25;5096951;28;20028;-74
2023/03/22 11:43:53;;;;;;;;;;;;;;;-141.59;100.00;61776.25;5094628;27;19982;-74
2023/03/22 11:46:20;;;;;;;;;;;;;;;-141.59;100.00;61776.25;5103689;27;19924;-74
2023/03/22 11:48:48;;;;;;;;;;;;;;;-141.59;100.00;61776.25;5098164;28;19989;-74
2023/03/22 11:51:16;;;;;;;;;;;;;;;-141.59;100.00;61776.25;5100868;28;19969;-74
2023/03/22 11:53:45;;;;;;;;;;;;;;;-141.59;100.00;61776.25;5096497;27;19924;-74
2023/03/22 11:56:16;;;;;;;;;;;;;;;-141.59;100.00;61776.25;5090383;28;19924;-76
2023/03/22 11:58:47;;;;;;;;;;;;;;;-141.59;100.00;61776.25;5098233;28;20081;-77
2023/03/22 12:01:18;;;;;;;;;;;;;;;-141.59;100.00;61776.25;5101412;28;19963;-76
2023/03/22 12:03:47;;;;;;;;;;;;;;;-141.59;100.00;61776.25;5098039;27;19986;-75
2023/03/22 12:06:18;;;;;;;;;;;;;;;-141.59;100.00;61776.25;5093235;28;19924;-77
2023/03/22 12:08:47;;;;;;;;;;;;;;;-141.59;100.00;61776.25;5098871;28;19984;-78
2023/03/22 12:11:18;;;;;;;;;;;;;;;-141.59;100.00;61776.25;5102039;28;19924;-79
2023/03/22 12:13:46;;;;;;;;;;;;;;;-141.59;100.00;61776.25;5100868;27;20056;-78
2023/03/22 12:16:14;;;;;;;;;;;;;;;-141.59;100.00;61776.25;5097396;28;19927;-78
2023/03/22 12:18:45;;;;;;;;;;;;;;;-141.59;100.00;61776.25;5101943;28;19967;-78
2023/03/22 12:21:12;;;;;;;;;;;;;;;-141.59;100.00;61776.25;5117511;27;19947;-78
2023/03/22 12:23:39;;;;;;;;;;;;;;;-141.59;100.00;61776.25;5097415;28;19928;-78
2023/03/22 12:26:07;;;;;;;;;;;;;;;-141.59;100.00;61776.25;5096269;28;19924;-79
2023/03/22 12:28:39;;;;;;;;;;;;;;;-141.59;100.00;61776.25;5106725;27;19924;-77
2023/03/22 12:31:07;;;;;;;;;;;;;;;-141.59;100.00;61776.25;5106078;28;19988;-77
2023/03/22 12:33:37;;;;;;;;;;;;;;;-141.59;100.00;61776.25;5113494;27;19927;-78
2023/03/22 12:36:05;;;;;;;;;;;;;;;-141.59;100.00;61776.25;5098149;28;19974;-77
2023/03/22 12:38:37;;;;;;;;;;;;;;;-141.59;100.00;61776.25;5096763;28;20021;-79
2023/03/22 12:41:07;;;;;;;;;;;;;;;-141.59;100.00;61776.25;5097620;28;19935;-78
2023/03/22 12:43:44;;;;;;;;;;;;;;;-141.59;100.00;61776.25;5100397;28;20029;-77
2023/03/22 12:46:15;;;;;;;;;;;;;;;-141.59;100.00;61776.25;5095723;27;20056;-77
2023/03/22 12:48:43;;;;;;;;;;;;;;;-141.59;100.00;61776.25;5105571;27;19931;-79
2023/03/22 12:51:12;;;;;;;;;;;;;;;-141.59;100.00;61776.25;5105337;27;19924;-79
2023/03/22 12:53:42;;;;;;;;;;;;;;;-141.59;100.00;61776.25;5096964;28;19935;-77
2023/03/22 12:56:12;;;;;;;;;;;;;;;-141.59;100.00;61776.25;5099931;28;19931;-78
2023/03/22 12:58:42;;;;;;;;;;;;;;;-141.59;100.00;61776.25;5101014;27;19928;-77
2023/03/22 13:01:19;;;;;;;;;;;;;;;-141.59;100.00;61776.25;5108809;27;19931;-78
2023/03/22 13:03:49;;;;;;;;;;;;;;;-141.59;100.00;61776.25;5100368;27;19928;-82